RJDM(METAR)
04/24 09:27
RJDM 240027Z 31002KT 9999 FEW005 SCT020 BKN025 19/18 Q1008 RMK
1ST005 3CU020 7CU025 A2979=
戻る
トップページへ戻る
IMOC Co,.Ltd.